createdAt,value
2017-07-24T00:02:02.938Z,2.40
2017-07-24T00:04:30.535Z,3.90
2017-07-24T00:06:58.065Z,2.43
2017-07-24T00:09:25.907Z,4.60
2017-07-24T00:11:53.434Z,6.90
2017-07-24T00:14:21.748Z,2.50
2017-07-24T00:16:49.315Z,2.93
2017-07-24T00:19:16.864Z,2.80
2017-07-24T00:21:44.748Z,2.27
2017-07-24T00:24:12.298Z,3.90
2017-07-24T00:26:39.837Z,1.80
2017-07-24T00:29:08.166Z,2.37
2017-07-24T00:31:35.701Z,2.00
2017-07-24T00:34:03.580Z,2.23
2017-07-24T00:36:31.100Z,2.03
2017-07-24T00:38:58.643Z,2.17
2017-07-24T00:41:26.224Z,2.50
2017-07-24T00:43:53.780Z,2.63
2017-07-24T00:46:21.694Z,1.83
2017-07-24T00:48:49.247Z,1.90
2017-07-24T00:51:16.770Z,3.33
2017-07-24T00:53:44.349Z,1.93
2017-07-24T00:56:11.880Z,2.27
2017-07-24T00:58:40.513Z,1.70
2017-07-24T01:01:08.037Z,3.53
2017-07-24T01:03:36.325Z,1.80
2017-07-24T01:06:03.885Z,2.40
2017-07-24T01:08:31.406Z,2.20
2017-07-24T01:10:59.258Z,1.97
2017-07-24T01:13:26.779Z,2.33
2017-07-24T01:15:54.311Z,2.77
2017-07-24T01:18:22.646Z,3.73
2017-07-24T01:20:50.187Z,2.73
2017-07-24T01:23:18.022Z,2.10
2017-07-24T01:25:46.304Z,2.20
2017-07-24T01:28:14.615Z,1.80
2017-07-24T01:30:42.161Z,2.80
2017-07-24T01:33:09.711Z,3.53
2017-07-24T01:35:37.624Z,3.20
2017-07-24T01:38:05.151Z,2.87
2017-07-24T01:40:32.667Z,2.30
2017-07-24T01:43:00.992Z,4.40
2017-07-24T01:45:28.510Z,2.33
2017-07-24T01:47:57.150Z,1.80
2017-07-24T01:50:24.680Z,3.00
2017-07-24T01:52:52.207Z,2.63
2017-07-24T01:55:19.755Z,2.40
2017-07-24T01:57:47.316Z,4.57
2017-07-24T02:00:15.157Z,2.03
2017-07-24T02:02:42.704Z,3.37
2017-07-24T02:05:10.220Z,2.60
2017-07-24T02:07:38.540Z,2.63
2017-07-24T02:10:06.063Z,3.53
2017-07-24T02:12:34.707Z,3.33
2017-07-24T02:15:02.251Z,3.13
2017-07-24T02:17:29.764Z,3.37
2017-07-24T02:19:58.076Z,3.37
2017-07-24T02:22:25.613Z,2.50
2017-07-24T02:24:54.254Z,3.63
2017-07-24T02:27:21.770Z,3.93
2017-07-24T02:29:50.065Z,3.77
2017-07-24T02:32:17.637Z,4.50
2017-07-24T02:34:45.193Z,3.80
2017-07-24T02:37:13.082Z,4.30
2017-07-24T02:39:40.632Z,4.13
2017-07-24T02:42:08.162Z,5.87
2017-07-24T02:44:35.751Z,3.57
2017-07-24T02:47:03.286Z,3.57
2017-07-24T02:49:31.179Z,4.17
2017-07-24T02:51:58.708Z,4.37
2017-07-24T02:54:26.249Z,3.93
2017-07-24T02:56:53.814Z,4.97
2017-07-24T02:59:22.146Z,4.60
2017-07-24T03:01:49.987Z,6.67
2017-07-24T03:04:17.526Z,5.40
2017-07-24T03:06:45.036Z,4.70
2017-07-24T03:09:12.594Z,3.87
2017-07-24T03:11:40.125Z,3.93
2017-07-24T03:14:08.012Z,4.50
2017-07-24T03:16:35.554Z,4.07
2017-07-24T03:19:03.112Z,7.63
2017-07-24T03:21:30.742Z,6.60
2017-07-24T03:23:58.281Z,5.70
2017-07-24T03:26:26.138Z,4.20
2017-07-24T03:28:53.679Z,3.83
2017-07-24T03:31:21.197Z,5.00
2017-07-24T03:33:49.518Z,3.80
2017-07-24T03:36:17.065Z,3.80
2017-07-24T03:38:44.959Z,5.57
2017-07-24T03:41:12.494Z,5.00
2017-07-24T03:43:40.046Z,6.60
2017-07-24T03:46:07.611Z,4.20
2017-07-24T03:48:35.149Z,3.53
2017-07-24T03:51:02.981Z,4.60
2017-07-24T03:53:30.538Z,5.50
2017-07-24T03:55:58.048Z,3.70
2017-07-24T03:58:25.627Z,4.20
2017-07-24T04:00:53.153Z,3.77
2017-07-24T04:03:21.828Z,3.67
2017-07-24T04:05:49.363Z,3.60
2017-07-24T04:08:16.884Z,3.70
2017-07-24T04:10:44.445Z,3.10
2017-07-24T04:13:11.973Z,3.47
2017-07-24T04:15:40.565Z,3.47
2017-07-24T04:18:08.869Z,3.67
2017-07-24T04:20:36.391Z,3.40
2017-07-24T04:23:04.190Z,3.53
2017-07-24T04:25:31.743Z,3.60
2017-07-24T04:27:59.675Z,3.50
2017-07-24T04:30:27.214Z,4.30
2017-07-24T04:32:54.746Z,3.90
2017-07-24T04:35:22.340Z,4.20
2017-07-24T04:37:49.873Z,4.07
2017-07-24T04:40:17.773Z,4.10
2017-07-24T04:42:45.299Z,5.80
2017-07-24T04:45:12.832Z,4.83
2017-07-24T04:47:40.452Z,4.10
2017-07-24T04:50:07.994Z,4.37
2017-07-24T04:52:35.798Z,3.60
2017-07-24T04:55:03.327Z,3.70
2017-07-24T04:57:30.860Z,4.40
2017-07-24T04:59:58.429Z,4.67
2017-07-24T05:02:25.991Z,4.17
2017-07-24T05:04:53.815Z,7.60
2017-07-24T05:07:22.106Z,4.73
2017-07-24T05:09:49.640Z,4.27
2017-07-24T05:12:17.209Z,3.67
2017-07-24T05:14:44.740Z,3.80
2017-07-24T05:17:12.698Z,3.90
2017-07-24T05:19:40.219Z,3.80
2017-07-24T05:22:07.740Z,4.73
2017-07-24T05:24:35.300Z,3.87
2017-07-24T05:27:02.810Z,3.93
2017-07-24T05:29:30.653Z,5.93
2017-07-24T05:31:58.961Z,4.73
2017-07-24T05:34:26.520Z,3.37
2017-07-24T05:36:54.089Z,3.27
2017-07-24T05:39:21.615Z,9.50
2017-07-24T05:41:50.261Z,5.33
2017-07-24T05:44:17.816Z,5.23
2017-07-24T05:46:45.350Z,3.53
2017-07-24T05:49:12.916Z,3.33
2017-07-24T05:51:40.454Z,3.67
2017-07-24T05:54:08.262Z,4.67
2017-07-24T05:56:35.819Z,3.23
2017-07-24T05:59:03.330Z,3.23
2017-07-24T06:01:30.892Z,3.27
2017-07-24T06:03:58.433Z,2.90
2017-07-24T06:06:26.235Z,2.70
2017-07-24T06:08:53.772Z,5.47
2017-07-24T06:11:22.218Z,4.43
2017-07-24T06:13:49.772Z,23.50
2017-07-24T06:16:17.333Z,5.90
2017-07-24T06:18:45.212Z,3.33
2017-07-24T06:21:12.767Z,3.47
2017-07-24T06:23:40.373Z,3.40
2017-07-24T06:26:07.928Z,3.03
2017-07-24T06:28:35.492Z,4.07
2017-07-24T06:31:04.101Z,2.70
2017-07-24T06:33:31.672Z,4.20
2017-07-24T06:35:59.236Z,5.70
2017-07-24T06:38:26.791Z,5.87
2017-07-24T06:40:54.338Z,7.27
2017-07-24T06:43:22.900Z,2.90
2017-07-24T06:45:51.263Z,3.33
2017-07-24T06:48:19.766Z,5.20
2017-07-24T06:50:47.535Z,2.60
2017-07-24T06:53:15.058Z,3.83
2017-07-24T06:55:42.907Z,4.53
2017-07-24T06:58:10.431Z,3.10
2017-07-24T07:00:37.966Z,4.07
2017-07-24T07:03:05.538Z,3.33
2017-07-24T07:05:33.090Z,2.93
2017-07-24T07:08:01.706Z,2.70
2017-07-24T07:10:29.234Z,3.73
2017-07-24T07:12:57.564Z,2.43
2017-07-24T07:15:25.898Z,2.33
2017-07-24T07:17:54.189Z,2.10
2017-07-24T07:20:22.013Z,2.90
2017-07-24T07:22:49.589Z,2.70
2017-07-24T07:25:17.122Z,2.77
2017-07-24T07:27:44.663Z,3.13
2017-07-24T07:30:12.202Z,2.37
2017-07-24T07:32:40.011Z,2.40
2017-07-24T07:35:07.542Z,3.33
2017-07-24T07:37:35.059Z,2.10
2017-07-24T07:40:02.632Z,3.10
2017-07-24T07:42:30.927Z,2.60
2017-07-24T07:44:58.754Z,3.70
2017-07-24T07:47:26.289Z,2.10
2017-07-24T07:49:53.841Z,2.37
2017-07-24T07:52:21.418Z,1.80
2017-07-24T07:54:49.008Z,2.43
2017-07-24T07:57:16.859Z,1.83
2017-07-24T07:59:44.422Z,2.57
2017-07-24T08:02:11.966Z,2.33
2017-07-24T08:04:39.525Z,2.03
2017-07-24T08:07:07.061Z,5.60
2017-07-24T08:09:34.897Z,6.03
2017-07-24T08:12:02.437Z,2.83
2017-07-24T08:14:30.758Z,2.93
2017-07-24T08:16:58.342Z,2.27
2017-07-24T08:19:25.920Z,2.40
2017-07-24T08:21:53.761Z,2.43
2017-07-24T08:24:21.334Z,2.07
2017-07-24T08:26:48.845Z,2.30
2017-07-24T08:29:16.420Z,3.13
2017-07-24T08:31:43.978Z,1.93
2017-07-24T08:34:11.905Z,1.70
2017-07-24T08:36:39.419Z,6.23
2017-07-24T08:39:06.931Z,2.80
2017-07-24T08:41:34.490Z,2.53
2017-07-24T08:44:02.813Z,3.83
2017-07-24T08:46:30.735Z,2.23
2017-07-24T08:48:58.258Z,1.87
2017-07-24T08:51:25.815Z,2.67
2017-07-24T08:53:54.188Z,2.10
2017-07-24T08:56:21.714Z,4.87
2017-07-24T08:58:49.536Z,4.53
2017-07-24T09:01:17.108Z,2.97
2017-07-24T09:03:45.185Z,2.90
2017-07-24T09:06:12.737Z,1.70
2017-07-24T09:08:40.262Z,3.13
2017-07-24T09:11:08.139Z,1.87
2017-07-24T09:13:35.757Z,2.97
2017-07-24T09:16:04.041Z,2.77
2017-07-24T09:18:31.590Z,5.73
2017-07-24T09:20:59.454Z,1.93
2017-07-24T09:23:27.288Z,2.00
2017-07-24T09:25:54.797Z,1.63
2017-07-24T09:28:22.323Z,2.83
2017-07-24T09:30:49.941Z,3.30
2017-07-24T09:33:20.469Z,2.00
2017-07-24T09:35:48.326Z,2.53
2017-07-24T09:38:15.862Z,2.53
2017-07-24T09:40:43.395Z,1.80
2017-07-24T09:43:10.987Z,2.90
2017-07-24T09:45:38.537Z,2.20
2017-07-24T09:48:06.347Z,1.53
2017-07-24T09:50:33.928Z,1.73
2017-07-24T09:53:01.490Z,2.37
2017-07-24T09:55:29.080Z,1.93
2017-07-24T09:57:56.655Z,2.63
2017-07-24T10:00:24.486Z,1.70
2017-07-24T10:02:52.052Z,2.87
2017-07-24T10:05:19.572Z,2.40
2017-07-24T10:07:47.129Z,1.97
2017-07-24T10:10:14.645Z,1.93
2017-07-24T10:12:42.500Z,1.90
2017-07-24T10:15:10.045Z,1.80
2017-07-24T10:17:37.585Z,1.87
2017-07-24T10:20:05.132Z,1.67
2017-07-24T10:22:32.686Z,2.50
2017-07-24T10:25:01.278Z,3.13
2017-07-24T10:27:28.826Z,2.50
2017-07-24T10:29:56.376Z,2.40
2017-07-24T10:32:23.948Z,3.53
2017-07-24T10:34:51.520Z,4.00
2017-07-24T10:37:19.325Z,1.77
2017-07-24T10:39:46.896Z,1.83
2017-07-24T10:42:16.352Z,2.87
2017-07-24T10:44:44.665Z,1.70
2017-07-24T10:47:12.195Z,4.10
2017-07-24T10:49:40.230Z,2.07
2017-07-24T10:52:07.777Z,2.10
2017-07-24T10:54:35.363Z,2.73
2017-07-24T10:57:03.011Z,3.03
2017-07-24T10:59:30.542Z,2.80
2017-07-24T11:01:58.437Z,3.10
2017-07-24T11:04:25.987Z,2.10
2017-07-24T11:06:53.510Z,3.60
2017-07-24T11:09:21.104Z,2.00
2017-07-24T11:11:48.671Z,2.00
2017-07-24T11:14:16.493Z,2.17
2017-07-24T11:16:44.028Z,2.90
2017-07-24T11:19:11.536Z,1.90
2017-07-24T11:21:39.130Z,2.23
2017-07-24T11:24:06.714Z,3.40
2017-07-24T11:26:35.371Z,2.50
2017-07-24T11:29:02.913Z,1.70
2017-07-24T11:31:30.453Z,1.97
2017-07-24T11:33:58.022Z,2.53
2017-07-24T11:36:25.545Z,2.03
2017-07-24T11:38:54.125Z,2.97
2017-07-24T11:41:21.676Z,3.20
2017-07-24T11:43:50.173Z,1.93
2017-07-24T11:46:17.715Z,2.10
2017-07-24T11:48:45.268Z,2.37
2017-07-24T11:51:14.012Z,2.00
2017-07-24T11:53:41.643Z,2.23
2017-07-24T11:56:09.932Z,2.70
2017-07-24T11:58:37.544Z,2.60
2017-07-24T12:01:05.113Z,2.00
2017-07-24T12:03:32.929Z,2.60
2017-07-24T12:06:00.479Z,2.73
2017-07-24T12:08:28.003Z,2.93
2017-07-24T12:10:55.536Z,3.63
2017-07-24T12:13:23.074Z,3.97
2017-07-24T12:15:50.981Z,2.33
2017-07-24T12:18:18.528Z,1.80
2017-07-24T12:20:46.088Z,1.73
2017-07-24T12:23:14.887Z,2.07
2017-07-24T12:25:42.432Z,4.90
2017-07-24T12:28:10.244Z,2.00
2017-07-24T12:30:37.778Z,2.30
2017-07-24T12:33:05.306Z,1.87
2017-07-24T12:35:32.852Z,4.60
2017-07-24T12:38:00.382Z,2.07
2017-07-24T12:40:28.257Z,2.50
2017-07-24T12:42:56.551Z,3.70
2017-07-24T12:45:24.842Z,1.90
2017-07-24T12:47:52.447Z,1.73
2017-07-24T12:50:19.989Z,2.60
2017-07-24T12:52:47.808Z,3.17
2017-07-24T12:55:15.349Z,1.70
2017-07-24T12:57:42.905Z,1.80
2017-07-24T13:00:10.480Z,1.80
2017-07-24T13:02:37.996Z,2.27
2017-07-24T13:05:05.874Z,2.60
2017-07-24T13:07:33.455Z,2.47
2017-07-24T13:10:00.991Z,3.10
2017-07-24T13:12:28.574Z,1.60
2017-07-24T13:14:56.111Z,8.23
2017-07-24T13:17:23.978Z,2.00
2017-07-24T13:19:51.512Z,3.20
2017-07-24T13:22:19.046Z,1.97
2017-07-24T13:24:46.612Z,2.07
2017-07-24T13:27:14.126Z,6.63
2017-07-24T13:29:41.978Z,4.00
2017-07-24T13:32:09.525Z,2.17
2017-07-24T13:34:37.049Z,3.30
2017-07-24T13:37:04.609Z,2.17
2017-07-24T13:39:32.119Z,2.90
2017-07-24T13:41:59.991Z,3.03
2017-07-24T13:44:27.526Z,2.17
2017-07-24T13:46:55.048Z,4.10
2017-07-24T13:49:22.623Z,3.50
2017-07-24T13:51:50.229Z,4.00
2017-07-24T13:54:18.118Z,5.87
2017-07-24T13:56:45.631Z,3.10
2017-07-24T13:59:13.168Z,3.30
2017-07-24T14:01:40.717Z,4.53
2017-07-24T14:04:08.238Z,3.10
2017-07-24T14:06:36.088Z,3.53
2017-07-24T14:09:03.619Z,2.30
2017-07-24T14:11:31.150Z,3.77
2017-07-24T14:13:58.730Z,2.60
2017-07-24T14:16:26.278Z,2.50
2017-07-24T14:18:54.119Z,2.90
2017-07-24T14:21:21.714Z,4.47
2017-07-24T14:23:49.233Z,3.30
2017-07-24T14:26:16.823Z,4.70
2017-07-24T14:28:44.369Z,2.97
2017-07-24T14:31:12.233Z,3.87
2017-07-24T14:33:39.730Z,4.10
2017-07-24T14:36:07.252Z,3.43
2017-07-24T14:38:34.815Z,2.80
2017-07-24T14:41:02.365Z,3.40
2017-07-24T14:43:30.209Z,3.50
2017-07-24T14:45:57.772Z,3.33
2017-07-24T14:48:25.355Z,3.60
2017-07-24T14:50:52.920Z,3.20
2017-07-24T14:53:20.475Z,2.80
2017-07-24T14:55:48.331Z,3.50
2017-07-24T14:58:15.862Z,3.40
2017-07-24T15:00:43.408Z,3.93
2017-07-24T15:03:10.987Z,3.47
2017-07-24T15:05:39.279Z,3.17
2017-07-24T15:08:07.112Z,4.10
2017-07-24T15:10:34.663Z,3.97
2017-07-24T15:13:02.176Z,4.03
2017-07-24T15:15:29.734Z,3.50
2017-07-24T15:17:57.269Z,6.00
2017-07-24T15:20:25.914Z,3.33
2017-07-24T15:22:53.449Z,3.17
2017-07-24T15:25:20.999Z,2.70
2017-07-24T15:27:48.672Z,3.67
2017-07-24T15:30:16.197Z,3.43
2017-07-24T15:32:44.126Z,3.17
2017-07-24T15:35:11.676Z,3.20
2017-07-24T15:37:39.226Z,2.80
2017-07-24T15:40:06.823Z,4.33
2017-07-24T15:42:34.363Z,6.50
2017-07-24T15:45:02.278Z,3.50
2017-07-24T15:47:29.828Z,3.63
2017-07-24T15:49:58.142Z,3.27
2017-07-24T15:52:25.713Z,3.50
2017-07-24T15:54:53.328Z,3.70
2017-07-24T15:57:21.225Z,3.43
2017-07-24T15:59:48.761Z,4.10
2017-07-24T16:02:16.289Z,3.27
2017-07-24T16:04:43.863Z,3.10
2017-07-24T16:07:11.392Z,3.50
2017-07-24T16:09:39.372Z,3.03
2017-07-24T16:12:06.922Z,2.80
2017-07-24T16:14:34.453Z,3.40
2017-07-24T16:17:02.013Z,3.33
2017-07-24T16:19:29.540Z,4.00
2017-07-24T16:21:57.387Z,3.30
2017-07-24T16:24:28.552Z,11.07
2017-07-24T16:26:56.961Z,3.27
2017-07-24T16:29:24.532Z,3.23
2017-07-24T16:31:52.062Z,6.83
2017-07-24T16:34:20.665Z,3.40
2017-07-24T16:36:48.204Z,3.80
2017-07-24T16:39:16.516Z,3.77
2017-07-24T16:41:44.127Z,3.97
2017-07-24T16:44:11.666Z,7.03
2017-07-24T16:46:39.487Z,3.90
2017-07-24T16:49:07.030Z,5.20
2017-07-24T16:51:34.594Z,4.70
2017-07-24T16:54:02.921Z,3.83
2017-07-24T16:56:30.454Z,4.60
2017-07-24T16:58:58.401Z,4.20
2017-07-24T17:01:25.951Z,4.20
2017-07-24T17:03:53.491Z,4.17
2017-07-24T17:06:21.068Z,4.13
2017-07-24T17:08:48.590Z,5.00
2017-07-24T17:11:16.476Z,4.90
2017-07-24T17:13:44.037Z,6.50
2017-07-24T17:16:11.676Z,6.77
2017-07-24T17:18:39.382Z,7.03
2017-07-24T17:21:06.961Z,7.47
2017-07-24T17:23:34.819Z,7.43
2017-07-24T17:26:02.404Z,9.67
2017-07-24T17:28:29.946Z,8.00
2017-07-24T17:30:57.644Z,9.50
2017-07-24T17:33:25.468Z,9.90
2017-07-24T17:35:54.097Z,9.40
2017-07-24T17:38:21.636Z,15.63
2017-07-24T17:40:49.933Z,9.80
2017-07-24T17:43:17.555Z,8.30
2017-07-24T17:45:45.136Z,10.00
2017-07-24T17:48:12.963Z,8.07
2017-07-24T17:50:40.500Z,8.27
2017-07-24T17:53:08.116Z,8.40
2017-07-24T17:55:36.552Z,8.87
2017-07-24T17:58:04.115Z,9.33
2017-07-24T18:00:32.011Z,8.90
2017-07-24T18:02:59.551Z,7.40
2017-07-24T18:05:27.107Z,8.77
2017-07-24T18:07:54.745Z,9.43
2017-07-24T18:10:22.319Z,8.90
2017-07-24T18:12:50.296Z,8.90
2017-07-24T18:15:17.854Z,9.77
2017-07-24T18:17:45.512Z,9.93
2017-07-24T18:20:13.386Z,8.80
2017-07-24T18:22:40.980Z,8.77
2017-07-24T18:25:08.937Z,12.00
2017-07-24T18:27:36.568Z,6.93
2017-07-24T18:30:04.184Z,10.13
2017-07-24T18:32:32.534Z,10.97
2017-07-24T18:35:00.209Z,9.77
2017-07-24T18:37:28.967Z,11.57
2017-07-24T18:39:56.588Z,10.80
2017-07-24T18:42:24.438Z,10.93
2017-07-24T18:44:52.042Z,12.20
2017-07-24T18:47:19.666Z,10.80
2017-07-24T18:49:47.527Z,13.47
2017-07-24T18:52:15.236Z,10.53
2017-07-24T18:54:42.874Z,10.53
2017-07-24T18:57:10.467Z,9.67
2017-07-24T18:59:38.050Z,10.27
2017-07-24T19:02:05.970Z,10.17
2017-07-24T19:04:33.520Z,9.40
2017-07-24T19:07:01.124Z,10.00
2017-07-24T19:09:28.778Z,10.03
2017-07-24T19:11:56.372Z,11.37
2017-07-24T19:14:24.239Z,9.07
2017-07-24T19:16:52.024Z,12.33
2017-07-24T19:19:20.372Z,10.23
2017-07-24T19:21:47.985Z,8.77
2017-07-24T19:24:15.563Z,10.20
2017-07-24T19:26:43.576Z,9.97
2017-07-24T19:29:11.186Z,8.37
2017-07-24T19:31:38.759Z,8.57
2017-07-24T19:34:10.066Z,9.67
2017-07-24T19:36:37.645Z,11.70
2017-07-24T19:39:05.644Z,9.40
2017-07-24T19:41:33.204Z,9.90
2017-07-24T19:44:00.795Z,10.40
2017-07-24T19:46:30.388Z,18.00
2017-07-24T19:48:57.951Z,20.23
2017-07-24T19:51:25.853Z,17.57
2017-07-24T19:53:53.444Z,15.80
2017-07-24T19:56:20.993Z,17.70
2017-07-24T19:58:49.361Z,13.10
2017-07-24T20:01:16.952Z,13.47
2017-07-24T20:03:44.771Z,13.27
2017-07-24T20:06:12.368Z,13.10
2017-07-24T20:08:40.073Z,11.30
2017-07-24T20:11:07.665Z,13.00
2017-07-24T20:13:35.383Z,11.30
2017-07-24T20:16:03.297Z,9.90
2017-07-24T20:18:31.689Z,8.73
2017-07-24T20:20:59.280Z,6.17
2017-07-24T20:23:26.918Z,7.63
2017-07-24T20:25:54.496Z,6.40
2017-07-24T20:28:22.556Z,7.30
2017-07-24T20:30:50.853Z,8.57
2017-07-24T20:33:18.389Z,6.13
2017-07-24T20:35:46.039Z,8.23
2017-07-24T20:38:17.593Z,5.93
2017-07-24T20:40:45.573Z,6.13
2017-07-24T20:43:13.154Z,6.30
2017-07-24T20:45:40.688Z,6.73
2017-07-24T20:48:08.274Z,6.80
2017-07-24T20:50:36.639Z,7.17
2017-07-24T20:53:04.587Z,6.37
2017-07-24T20:55:33.174Z,8.53
2017-07-24T20:58:00.787Z,7.13
2017-07-24T21:00:28.383Z,6.60
2017-07-24T21:02:56.023Z,6.33
2017-07-24T21:05:23.977Z,5.20
2017-07-24T21:07:51.518Z,6.07
2017-07-24T21:10:19.090Z,4.03
2017-07-24T21:12:46.648Z,4.50
2017-07-24T21:15:14.217Z,3.17
2017-07-24T21:17:42.153Z,3.17
2017-07-24T21:20:09.751Z,3.47
2017-07-24T21:22:37.320Z,3.43
2017-07-24T21:25:04.981Z,3.10
2017-07-24T21:27:32.531Z,3.77
2017-07-24T21:30:00.525Z,3.90
2017-07-24T21:32:28.169Z,4.27
2017-07-24T21:34:56.732Z,3.50
2017-07-24T21:37:25.115Z,3.53
2017-07-24T21:39:53.433Z,5.03
2017-07-24T21:42:21.269Z,4.17
2017-07-24T21:44:48.788Z,4.77
2017-07-24T21:47:16.323Z,3.57
2017-07-24T21:49:43.903Z,3.63
2017-07-24T21:52:11.437Z,3.50
2017-07-24T21:54:39.324Z,3.10
2017-07-24T21:57:06.964Z,3.43
2017-07-24T21:59:34.539Z,4.10
2017-07-24T22:02:02.112Z,2.90
2017-07-24T22:04:29.667Z,4.10
2017-07-24T22:06:57.643Z,4.47
2017-07-24T22:09:25.291Z,4.10
2017-07-24T22:11:52.830Z,4.30
2017-07-24T22:14:20.408Z,4.33
2017-07-24T22:16:47.960Z,3.80
2017-07-24T22:19:15.779Z,3.00
2017-07-24T22:21:43.475Z,3.63
2017-07-24T22:24:11.033Z,4.23
2017-07-24T22:26:38.623Z,3.70
2017-07-24T22:29:06.227Z,3.80
2017-07-24T22:31:34.095Z,4.00
2017-07-24T22:34:03.318Z,3.00
2017-07-24T22:36:30.877Z,3.10
2017-07-24T22:38:58.457Z,3.60
2017-07-24T22:41:25.991Z,3.30
2017-07-24T22:43:54.065Z,3.27
2017-07-24T22:46:21.587Z,4.43
2017-07-24T22:48:49.122Z,3.40
2017-07-24T22:51:16.711Z,2.90
2017-07-24T22:53:44.248Z,3.40
2017-07-24T22:56:12.112Z,4.33
2017-07-24T22:58:39.676Z,2.87
2017-07-24T23:01:07.202Z,3.67
2017-07-24T23:03:34.780Z,2.80
2017-07-24T23:06:02.329Z,3.03
2017-07-24T23:08:30.147Z,3.10
2017-07-24T23:10:57.679Z,3.70
2017-07-24T23:13:25.212Z,4.80
2017-07-24T23:15:52.770Z,4.40
2017-07-24T23:18:20.309Z,3.50
2017-07-24T23:20:48.910Z,5.17
2017-07-24T23:23:16.470Z,4.40
2017-07-24T23:25:43.996Z,3.77
2017-07-24T23:28:11.576Z,4.43
2017-07-24T23:30:39.885Z,5.37
2017-07-24T23:33:07.777Z,3.73
2017-07-24T23:35:35.335Z,3.50
2017-07-24T23:38:02.861Z,6.17
2017-07-24T23:40:30.445Z,4.40
2017-07-24T23:42:57.961Z,3.50
2017-07-24T23:45:26.556Z,3.63
2017-07-24T23:47:54.073Z,3.33
2017-07-24T23:50:21.621Z,4.20
2017-07-24T23:52:49.184Z,2.73
2017-07-24T23:55:16.701Z,2.23
2017-07-24T23:57:44.523Z,2.70
